createdAt,value
2019-04-26T00:00:54.432Z,87.90
2019-04-26T00:03:29.925Z,88.00
2019-04-26T00:06:01.657Z,88.10
2019-04-26T00:08:32.514Z,88.10
2019-04-26T00:11:04.690Z,88.30
2019-04-26T00:13:37.124Z,88.60
2019-04-26T00:16:16.787Z,88.20
2019-04-26T00:18:47.726Z,88.10
2019-04-26T00:21:18.558Z,88.10
2019-04-26T00:23:49.781Z,87.60
2019-04-26T00:26:21.808Z,87.20
2019-04-26T00:28:52.660Z,86.80
2019-04-26T00:31:23.577Z,86.60
2019-04-26T00:34:15.397Z,86.60
2019-04-26T00:36:46.302Z,86.70
2019-04-26T00:39:18.140Z,87.00
2019-04-26T00:41:49.248Z,86.90
2019-04-26T00:44:20.913Z,87.20
2019-04-26T00:46:54.548Z,87.60
2019-04-26T00:49:25.976Z,87.70
2019-04-26T00:51:56.940Z,87.70
2019-04-26T00:54:28.353Z,87.30
2019-04-26T00:56:59.530Z,87.20
2019-04-26T00:59:31.198Z,87.10
2019-04-26T01:02:03.498Z,86.90
2019-04-26T01:04:34.197Z,86.60
2019-04-26T01:07:05.735Z,86.40
2019-04-26T01:09:36.610Z,86.20
2019-04-26T01:12:07.375Z,86.30
2019-04-26T01:14:37.976Z,86.00
2019-04-26T01:17:08.795Z,86.10
2019-04-26T01:19:41.916Z,85.80
2019-04-26T01:22:15.385Z,85.70
2019-04-26T01:24:48.714Z,84.90
2019-04-26T01:27:23.332Z,85.00
2019-04-26T01:29:56.691Z,84.90
2019-04-26T01:32:28.924Z,84.70
2019-04-26T01:34:59.879Z,83.90
2019-04-26T01:37:31.582Z,83.00
2019-04-26T01:40:06.559Z,83.90
2019-04-26T01:42:41.065Z,84.40
2019-04-26T01:45:20.188Z,84.10
2019-04-26T01:48:11.895Z,83.80
2019-04-26T01:50:42.727Z,82.90
2019-04-26T01:53:13.551Z,81.90
2019-04-26T01:55:44.388Z,81.50
2019-04-26T01:58:15.407Z,82.10
2019-04-26T02:00:56.702Z,82.50
2019-04-26T02:03:29.793Z,82.70
2019-04-26T02:06:00.935Z,82.80
2019-04-26T02:08:32.491Z,82.90
2019-04-26T02:11:03.580Z,83.40
2019-04-26T02:13:34.369Z,83.50
2019-04-26T02:16:05.028Z,83.00
2019-04-26T02:18:36.115Z,81.10
2019-04-26T02:21:27.974Z,80.60
2019-04-26T02:24:06.570Z,80.60
2019-04-26T02:26:42.258Z,81.30
2019-04-26T02:29:21.743Z,80.70
2019-04-26T02:31:54.750Z,80.40
2019-04-26T02:34:28.980Z,81.40
2019-04-26T02:37:01.084Z,80.70
2019-04-26T02:39:35.398Z,80.20
2019-04-26T02:42:09.135Z,80.60
2019-04-26T02:44:59.931Z,79.50
2019-04-26T02:47:39.388Z,79.40
2019-04-26T02:50:19.541Z,79.70
2019-04-26T02:52:58.438Z,79.90
2019-04-26T02:55:50.135Z,80.00
2019-04-26T02:58:23.029Z,80.00
2019-04-26T03:00:55.075Z,78.80
2019-04-26T03:03:29.802Z,79.20
2019-04-26T03:06:00.875Z,79.10
2019-04-26T03:08:39.300Z,78.00
2019-04-26T03:11:16.882Z,78.10
2019-04-26T03:13:48.772Z,77.10
2019-04-26T03:16:36.803Z,76.90
2019-04-26T03:19:17.132Z,77.40
2019-04-26T03:22:25.321Z,77.00
2019-04-26T03:25:04.302Z,78.20
2019-04-26T03:27:46.811Z,76.60
2019-04-26T03:30:23.788Z,76.50
2019-04-26T03:33:03.221Z,76.20
2019-04-26T03:35:57.224Z,75.40
2019-04-26T03:38:36.188Z,76.40
2019-04-26T03:41:27.566Z,76.40
2019-04-26T03:44:00.857Z,75.80
2019-04-26T03:46:35.502Z,75.50
2019-04-26T03:49:26.700Z,75.70
2019-04-26T03:52:14.786Z,76.00
2019-04-26T03:54:48.160Z,76.10
2019-04-26T03:57:31.316Z,76.20
2019-04-26T04:00:11.959Z,75.20
2019-04-26T04:05:41.958Z,74.40
2019-04-26T04:08:15.115Z,74.00
2019-04-26T04:10:57.639Z,74.50
2019-04-26T04:13:46.712Z,74.40
2019-04-26T04:16:42.870Z,73.60
2019-04-26T04:19:22.407Z,73.80
2019-04-26T04:22:19.726Z,73.50
2019-04-26T04:24:53.022Z,72.80
2019-04-26T04:27:35.457Z,72.70
2019-04-26T04:30:29.539Z,72.10
2019-04-26T04:33:27.436Z,72.60
2019-04-26T04:36:00.549Z,72.20
2019-04-26T04:38:53.360Z,71.40
2019-04-26T04:41:41.069Z,70.70
2019-04-26T04:44:21.809Z,70.80
2019-04-26T04:47:30.686Z,70.80
2019-04-26T04:50:26.813Z,70.80
2019-04-26T04:53:08.911Z,69.30
2019-04-26T04:56:14.929Z,70.00
2019-04-26T04:58:56.913Z,70.80
2019-04-26T05:01:53.974Z,71.10
2019-04-26T05:04:28.368Z,69.40
2019-04-26T05:07:29.458Z,69.60
2019-04-26T05:10:11.223Z,70.40
2019-04-26T05:12:50.203Z,71.10
2019-04-26T05:15:37.005Z,70.80
2019-04-26T05:18:25.661Z,69.70
2019-04-26T05:20:58.780Z,69.60
2019-04-26T05:23:32.867Z,68.90
2019-04-26T05:26:53.570Z,68.30
2019-04-26T05:29:49.927Z,69.00
2019-04-26T05:32:29.768Z,69.30
2019-04-26T05:35:26.828Z,69.60
2019-04-26T05:38:17.951Z,69.50
2019-04-26T05:41:02.038Z,70.40
2019-04-26T05:43:42.600Z,70.80
2019-04-26T05:46:26.450Z,70.30
2019-04-26T05:49:22.195Z,69.40
2019-04-26T05:52:06.073Z,70.40
2019-04-26T05:54:52.246Z,71.40
2019-04-26T05:57:41.914Z,70.50
2019-04-26T06:00:18.847Z,71.10
2019-04-26T06:03:05.246Z,71.20
2019-04-26T06:06:05.367Z,70.60
2019-04-26T06:09:15.466Z,70.50
2019-04-26T06:11:56.444Z,70.90
2019-04-26T06:15:07.312Z,70.50
2019-04-26T06:17:42.054Z,70.30
2019-04-26T06:20:24.586Z,69.80
2019-04-26T06:23:06.106Z,68.70
2019-04-26T06:25:55.602Z,68.70
2019-04-26T06:28:27.703Z,67.90
2019-04-26T06:31:01.383Z,67.50
2019-04-26T06:33:46.788Z,67.80
2019-04-26T06:36:22.063Z,66.50
2019-04-26T06:39:04.114Z,66.70
2019-04-26T06:42:11.086Z,66.70
2019-04-26T06:45:23.760Z,67.00
2019-04-26T06:48:07.130Z,64.20
2019-04-26T06:50:41.799Z,63.70
2019-04-26T06:53:39.508Z,63.00
2019-04-26T06:56:14.236Z,63.30
2019-04-26T06:59:19.656Z,65.10
2019-04-26T07:01:59.172Z,64.20
2019-04-26T07:04:38.971Z,65.20
2019-04-26T07:07:30.403Z,62.90
2019-04-26T07:10:04.356Z,62.60
2019-04-26T07:12:53.736Z,63.30
2019-04-26T07:15:45.308Z,62.00
2019-04-26T07:18:31.093Z,62.90
2019-04-26T07:21:06.967Z,62.20
2019-04-26T07:23:59.569Z,62.40
2019-04-26T07:26:52.095Z,62.90
2019-04-26T07:29:49.618Z,61.60
2019-04-26T07:32:51.804Z,60.20
2019-04-26T07:35:45.917Z,60.50
2019-04-26T07:38:54.470Z,60.30
2019-04-26T07:41:45.520Z,61.20
2019-04-26T07:44:38.143Z,60.30
2019-04-26T07:47:29.374Z,58.20
2019-04-26T07:50:19.297Z,59.60
2019-04-26T07:53:24.447Z,58.60
2019-04-26T07:56:13.519Z,59.30
2019-04-26T07:58:55.640Z,60.10
2019-04-26T08:01:36.470Z,60.00
2019-04-26T08:04:11.529Z,58.70
2019-04-26T08:06:52.503Z,59.40
2019-04-26T08:09:27.460Z,59.00
2019-04-26T08:12:06.487Z,59.60
2019-04-26T08:14:43.702Z,60.20
2019-04-26T08:17:27.375Z,60.50
2019-04-26T08:20:42.381Z,60.10
2019-04-26T08:23:37.319Z,61.60
2019-04-26T08:25:50.613Z,61.20
2019-04-26T08:28:23.631Z,61.00
2019-04-26T08:30:56.732Z,61.80
2019-04-26T08:33:31.493Z,62.00
2019-04-26T08:36:04.811Z,62.60
2019-04-26T08:38:37.754Z,63.10
2019-04-26T08:41:09.907Z,64.50
2019-04-26T08:43:43.146Z,65.60
2019-04-26T08:46:20.305Z,66.30
2019-04-26T08:48:53.067Z,66.80
2019-04-26T08:51:26.043Z,66.50
2019-04-26T08:53:59.144Z,66.50
2019-04-26T08:56:35.499Z,66.50
2019-04-26T08:59:27.116Z,66.20
2019-04-26T09:02:10.439Z,67.10
2019-04-26T09:04:57.431Z,66.20
2019-04-26T09:07:36.375Z,66.00
2019-04-26T09:10:11.327Z,66.80
2019-04-26T09:12:43.844Z,68.20
2019-04-26T09:15:17.069Z,68.20
2019-04-26T09:17:47.711Z,69.00
2019-04-26T09:20:28.216Z,69.60
2019-04-26T09:22:56.202Z,69.40
2019-04-26T09:25:39.327Z,68.50
2019-04-26T09:28:21.114Z,68.40
2019-04-26T09:30:56.133Z,67.90
2019-04-26T09:33:36.048Z,69.20
2019-04-26T09:36:06.963Z,69.80
2019-04-26T09:38:37.932Z,69.00
2019-04-26T09:41:08.620Z,70.40
2019-04-26T09:43:41.085Z,71.50
2019-04-26T09:46:38.532Z,71.70
2019-04-26T09:49:10.968Z,71.80
2019-04-26T09:51:42.379Z,72.00
2019-04-26T09:54:15.322Z,72.60
2019-04-26T09:56:45.626Z,73.40
2019-04-26T09:59:16.418Z,73.50
2019-04-26T10:01:47.147Z,73.90
2019-04-26T10:04:18.036Z,73.80
2019-04-26T10:06:48.726Z,73.20
2019-04-26T10:09:21.267Z,73.70
2019-04-26T10:11:56.607Z,74.60
2019-04-26T10:14:38.143Z,73.70
2019-04-26T10:17:11.562Z,73.40
2019-04-26T10:19:55.994Z,73.10
2019-04-26T10:22:28.329Z,73.40
2019-04-26T10:25:02.508Z,73.60
2019-04-26T10:30:11.456Z,75.30
2019-04-26T10:32:42.280Z,75.10
2019-04-26T10:35:13.189Z,75.00
2019-04-26T10:37:47.660Z,74.60
2019-04-26T10:40:16.195Z,74.50
2019-04-26T10:42:49.438Z,75.10
2019-04-26T10:45:20.893Z,75.40
2019-04-26T10:47:51.684Z,75.80
2019-04-26T10:50:28.680Z,76.20
2019-04-26T10:53:00.878Z,76.80
2019-04-26T10:55:39.307Z,77.30
2019-04-26T10:58:11.440Z,77.40
2019-04-26T11:00:44.135Z,77.40
2019-04-26T11:03:15.180Z,77.40
2019-04-26T11:05:49.244Z,77.50
2019-04-26T11:08:18.172Z,77.80
2019-04-26T11:11:09.015Z,77.90
2019-04-26T11:13:40.015Z,78.00
2019-04-26T11:16:10.780Z,78.40
2019-04-26T11:18:41.479Z,78.70
2019-04-26T11:21:12.396Z,79.10
2019-04-26T11:24:02.251Z,80.00
2019-04-26T11:26:35.969Z,81.20
2019-04-26T11:29:07.030Z,81.00
2019-04-26T11:31:37.789Z,81.30
2019-04-26T11:34:08.261Z,81.30
2019-04-26T11:36:41.693Z,82.00
2019-04-26T11:39:13.235Z,82.00
2019-04-26T11:42:04.168Z,81.90
2019-04-26T11:44:34.731Z,83.20
2019-04-26T11:47:07.810Z,82.80
2019-04-26T11:49:41.449Z,83.00
2019-04-26T11:52:32.212Z,82.30
2019-04-26T11:55:03.824Z,81.70
2019-04-26T11:57:34.727Z,82.40
2019-04-26T12:00:06.961Z,82.30
2019-04-26T12:02:39.676Z,82.60
2019-04-26T12:05:28.899Z,82.80
2019-04-26T12:08:01.231Z,83.10
2019-04-26T12:10:32.249Z,83.20
2019-04-26T12:13:05.858Z,83.50
2019-04-26T12:15:38.996Z,83.90
2019-04-26T12:18:09.898Z,84.30
2019-04-26T12:20:40.059Z,84.10
2019-04-26T12:23:13.540Z,84.00
2019-04-26T12:25:43.661Z,77.50
2019-04-26T12:28:15.281Z,71.40
2019-04-26T12:30:45.940Z,70.30
2019-04-26T12:36:09.492Z,66.80
2019-04-26T12:38:38.332Z,66.30
2019-04-26T12:41:11.383Z,66.60
2019-04-26T12:43:40.715Z,66.80
2019-04-26T12:46:22.541Z,66.80
2019-04-26T12:48:51.407Z,66.40
2019-04-26T12:51:22.212Z,66.00
2019-04-26T12:53:53.002Z,65.80
2019-04-26T12:56:26.669Z,65.20
2019-04-26T12:58:55.843Z,66.00
2019-04-26T13:01:26.480Z,65.60
2019-04-26T13:04:07.351Z,65.00
2019-04-26T13:06:39.823Z,65.00
2019-04-26T13:09:21.819Z,66.20
2019-04-26T13:11:59.621Z,65.00
2019-04-26T13:17:51.627Z,64.50
2019-04-26T13:20:24.258Z,65.10
2019-04-26T13:22:55.871Z,65.50
2019-04-26T13:25:30.448Z,65.70
2019-04-26T13:27:59.038Z,65.50
2019-04-26T13:30:32.926Z,65.80
2019-04-26T13:33:02.185Z,66.20
2019-04-26T13:35:32.892Z,66.80
2019-04-26T13:38:05.145Z,67.40
2019-04-26T13:40:35.959Z,67.90
2019-04-26T13:43:07.905Z,68.10
2019-04-26T13:45:40.147Z,67.90
2019-04-26T13:48:49.392Z,67.00
2019-04-26T13:51:21.487Z,67.20
2019-04-26T13:53:54.282Z,67.40
2019-04-26T13:56:43.581Z,67.60
2019-04-26T13:59:14.521Z,67.70
2019-04-26T14:01:45.145Z,68.60
2019-04-26T14:04:15.712Z,69.30
2019-04-26T14:06:46.356Z,70.10
2019-04-26T14:09:16.892Z,70.60
2019-04-26T14:11:47.619Z,72.40
2019-04-26T14:14:18.247Z,72.90
2019-04-26T14:16:51.997Z,73.70
2019-04-26T14:19:21.566Z,77.40
2019-04-26T14:21:52.890Z,78.50
2019-04-26T14:24:25.217Z,79.80
2019-04-26T14:26:57.602Z,80.70
2019-04-26T14:29:32.120Z,81.10
2019-04-26T14:32:01.176Z,81.30
2019-04-26T14:34:31.872Z,81.00
2019-04-26T14:37:06.752Z,80.90
2019-04-26T14:39:49.550Z,80.60
2019-04-26T14:42:07.766Z,80.20
2019-04-26T14:44:48.926Z,79.80
2019-04-26T14:47:14.734Z,79.50
2019-04-26T14:49:43.199Z,78.80
2019-04-26T14:52:14.404Z,78.50
2019-04-26T14:54:47.546Z,78.70
2019-04-26T14:57:25.790Z,78.50
2019-04-26T14:59:52.752Z,78.70
2019-04-26T15:02:47.158Z,78.60
2019-04-26T15:05:22.991Z,77.50
2019-04-26T15:07:53.922Z,75.80
2019-04-26T15:10:26.091Z,74.40
2019-04-26T15:13:11.491Z,73.90
2019-04-26T15:15:32.110Z,74.20
2019-04-26T15:18:02.869Z,73.70
2019-04-26T15:20:33.706Z,73.80
2019-04-26T15:23:04.464Z,74.10
2019-04-26T15:25:36.782Z,74.20
2019-04-26T15:28:11.999Z,74.70
2019-04-26T15:30:46.283Z,75.10
2019-04-26T15:33:13.843Z,75.40
2019-04-26T15:35:45.132Z,76.00
2019-04-26T15:38:15.847Z,76.40
2019-04-26T15:41:04.438Z,76.90
2019-04-26T15:46:50.245Z,77.60
2019-04-26T15:49:29.769Z,78.10
2019-04-26T15:52:00.843Z,78.70
2019-04-26T15:54:32.386Z,79.30
2019-04-26T15:57:06.253Z,80.10
2019-04-26T15:59:35.672Z,79.50
2019-04-26T16:02:06.444Z,79.70
2019-04-26T16:04:37.181Z,79.80
2019-04-26T16:07:08.039Z,80.40
2019-04-26T16:09:40.071Z,81.60
2019-04-26T16:12:10.859Z,81.20
2019-04-26T16:14:42.242Z,81.50
2019-04-26T16:17:13.006Z,81.70
2019-04-26T16:19:43.678Z,82.20
2019-04-26T16:22:14.622Z,82.30
2019-04-26T16:24:45.316Z,82.60
2019-04-26T16:27:16.024Z,82.60
2019-04-26T16:30:00.675Z,82.80
2019-04-26T16:32:47.317Z,83.00
2019-04-26T16:35:18.159Z,83.70
2019-04-26T16:37:51.818Z,83.30
2019-04-26T16:40:25.698Z,83.60
2019-04-26T16:42:57.072Z,83.90
2019-04-26T16:45:26.915Z,84.40
2019-04-26T16:47:57.480Z,84.80
2019-04-26T16:50:31.590Z,85.00
2019-04-26T16:53:00.503Z,85.20
2019-04-26T16:55:38.052Z,85.70
2019-04-26T16:58:04.449Z,86.30
2019-04-26T17:00:50.254Z,86.70
2019-04-26T17:03:08.132Z,86.80
2019-04-26T17:05:47.502Z,87.00
2019-04-26T17:08:12.821Z,87.20
2019-04-26T17:10:43.455Z,87.10
2019-04-26T17:13:14.447Z,87.30
2019-04-26T17:15:46.507Z,87.40
2019-04-26T17:18:19.401Z,87.60
2019-04-26T17:20:49.465Z,88.10
2019-04-26T17:23:37.976Z,88.00
2019-04-26T17:26:29.344Z,88.00
2019-04-26T17:29:02.270Z,88.10
2019-04-26T17:31:33.623Z,88.50
2019-04-26T17:34:05.265Z,88.50
2019-04-26T17:36:36.781Z,88.50
2019-04-26T17:39:11.048Z,88.30
2019-04-26T17:41:43.262Z,88.60
2019-04-26T17:44:14.180Z,88.60
2019-04-26T17:46:48.974Z,88.50
2019-04-26T17:49:21.454Z,88.50
2019-04-26T17:51:53.148Z,88.40
2019-04-26T17:54:41.387Z,88.40
2019-04-26T17:56:55.123Z,88.50
2019-04-26T17:59:33.349Z,88.60
2019-04-26T18:02:01.184Z,88.80
2019-04-26T18:04:36.141Z,88.90
2019-04-26T18:07:10.910Z,88.80
2019-04-26T18:09:44.002Z,88.80
2019-04-26T18:12:07.436Z,88.50
2019-04-26T18:14:37.948Z,88.60
2019-04-26T18:17:10.261Z,88.80
2019-04-26T18:19:42.107Z,88.70
2019-04-26T18:22:14.709Z,88.20
2019-04-26T18:24:45.953Z,88.20
2019-04-26T18:27:16.756Z,88.50
2019-04-26T18:29:47.450Z,88.80
2019-04-26T18:32:18.341Z,88.90
2019-04-26T18:34:49.039Z,88.80
2019-04-26T18:37:20.265Z,89.00
2019-04-26T18:39:51.146Z,89.10
2019-04-26T18:42:21.833Z,88.90
2019-04-26T18:44:53.980Z,88.60
2019-04-26T18:47:29.330Z,89.00
2019-04-26T18:50:00.105Z,88.90
2019-04-26T18:52:33.034Z,89.10
2019-04-26T18:55:05.752Z,88.60
2019-04-26T18:57:36.859Z,88.10
2019-04-26T19:00:10.258Z,88.10
2019-04-26T19:02:42.829Z,88.40
2019-04-26T19:05:15.592Z,88.20
2019-04-26T19:07:46.203Z,88.10
2019-04-26T19:10:18.088Z,88.40
2019-04-26T19:12:49.955Z,88.40
2019-04-26T19:15:41.641Z,89.40
2019-04-26T19:18:22.032Z,89.10
2019-04-26T19:21:06.921Z,88.80
2019-04-26T19:23:37.705Z,88.80
2019-04-26T19:26:09.478Z,88.90
2019-04-26T19:28:43.131Z,89.00
2019-04-26T19:31:12.932Z,89.00
2019-04-26T19:33:43.616Z,89.00
2019-04-26T19:36:17.772Z,89.20
2019-04-26T19:38:49.799Z,89.30
2019-04-26T19:41:21.545Z,89.60
2019-04-26T19:43:52.141Z,89.60
2019-04-26T19:46:25.356Z,89.90
2019-04-26T19:49:14.480Z,90.00
2019-04-26T19:52:03.819Z,90.00
2019-04-26T19:54:41.793Z,86.10
2019-04-26T19:57:26.454Z,84.40
2019-04-26T19:59:57.388Z,84.00
2019-04-26T20:02:35.821Z,83.50
2019-04-26T20:05:02.389Z,83.20
2019-04-26T20:07:33.358Z,83.40
2019-04-26T20:10:05.128Z,83.50
2019-04-26T20:12:38.117Z,82.70
2019-04-26T20:15:12.610Z,82.80
2019-04-26T20:17:42.017Z,82.30
2019-04-26T20:20:35.977Z,82.50
2019-04-26T20:23:07.855Z,82.80
2019-04-26T20:25:37.561Z,82.80
2019-04-26T20:28:08.343Z,83.10
2019-04-26T20:30:57.899Z,83.10
2019-04-26T20:33:31.321Z,83.00
2019-04-26T20:36:04.563Z,83.00
2019-04-26T20:38:53.597Z,83.20
2019-04-26T20:41:25.210Z,83.70
2019-04-26T20:44:04.952Z,83.70
2019-04-26T20:46:29.769Z,84.00
2019-04-26T20:49:01.463Z,83.90
2019-04-26T20:51:32.872Z,83.70
2019-04-26T20:54:03.870Z,83.70
2019-04-26T20:56:34.687Z,83.60
2019-04-26T20:59:05.609Z,84.80
2019-04-26T21:04:36.883Z,84.00
2019-04-26T21:06:59.255Z,83.70
2019-04-26T21:09:30.180Z,83.70
2019-04-26T21:12:01.890Z,83.40
2019-04-26T21:14:32.829Z,83.20
2019-04-26T21:17:03.655Z,83.10
2019-04-26T21:19:34.388Z,83.40
2019-04-26T21:22:05.153Z,83.30
2019-04-26T21:24:37.473Z,83.20
2019-04-26T21:27:09.694Z,82.70
2019-04-26T21:29:59.253Z,82.90
2019-04-26T21:32:33.273Z,83.10
2019-04-26T21:35:05.919Z,83.00
2019-04-26T21:37:38.175Z,83.70
2019-04-26T21:40:10.841Z,82.70
2019-04-26T21:42:43.459Z,82.70
2019-04-26T21:45:14.130Z,83.20
2019-04-26T21:47:45.028Z,82.30
2019-04-26T21:50:16.893Z,82.60
2019-04-26T21:52:49.710Z,83.00
2019-04-26T21:55:20.515Z,83.00
2019-04-26T21:57:51.188Z,83.20
2019-04-26T22:00:27.156Z,83.20
2019-04-26T22:02:57.856Z,83.20
2019-04-26T22:05:28.875Z,83.20
2019-04-26T22:07:59.782Z,83.20
2019-04-26T22:10:32.925Z,83.20
2019-04-26T22:13:06.387Z,83.40
2019-04-26T22:15:54.770Z,84.00
2019-04-26T22:18:30.094Z,84.40
2019-04-26T22:21:14.507Z,84.10
2019-04-26T22:23:56.139Z,84.30
2019-04-26T22:26:26.975Z,84.60
2019-04-26T22:29:00.141Z,84.80
2019-04-26T22:31:29.938Z,84.70
2019-04-26T22:34:01.363Z,84.80
2019-04-26T22:36:35.563Z,84.80
2019-04-26T22:39:07.748Z,84.80
2019-04-26T22:42:02.715Z,85.00
2019-04-26T22:44:36.076Z,85.00
2019-04-26T22:47:14.421Z,85.00
2019-04-26T22:49:45.440Z,85.30
2019-04-26T22:52:16.639Z,85.40
2019-04-26T22:54:47.488Z,85.60
2019-04-26T22:57:18.620Z,86.10
2019-04-26T22:59:50.473Z,86.60
2019-04-26T23:02:26.202Z,87.10
2019-04-26T23:04:56.089Z,87.10
2019-04-26T23:07:26.738Z,87.40
2019-04-26T23:09:57.553Z,87.40
2019-04-26T23:12:46.395Z,87.40
2019-04-26T23:15:18.601Z,87.50
2019-04-26T23:18:03.740Z,87.90
2019-04-26T23:20:34.274Z,88.20
2019-04-26T23:23:08.544Z,88.30
2019-04-26T23:25:38.467Z,88.20
2019-04-26T23:28:09.152Z,88.40
2019-04-26T23:30:40.003Z,88.70
2019-04-26T23:33:10.711Z,88.90
2019-04-26T23:35:43.872Z,89.00
2019-04-26T23:38:13.634Z,89.00
2019-04-26T23:40:44.312Z,89.10
2019-04-26T23:43:15.038Z,89.30
2019-04-26T23:45:48.353Z,89.60
2019-04-26T23:48:18.591Z,89.80
2019-04-26T23:50:50.983Z,90.00
2019-04-26T23:53:21.650Z,90.00
2019-04-26T23:55:52.387Z,90.00
2019-04-26T23:58:23.276Z,90.00
